sensor_id;sensor_type;location;lat;lon;timestamp;pressure;altitude;pressure_sealevel;temperature
8533;BMP280;4304;53.876;10.662;2023-06-14T00:00:30;101896.25;;;14.85
8533;BMP280;4304;53.876;10.662;2023-06-14T00:02:56;101897.53;;;14.80
8533;BMP280;4304;53.876;10.662;2023-06-14T00:05:22;101895.19;;;14.75
8533;BMP280;4304;53.876;10.662;2023-06-14T00:07:48;101904.69;;;14.64
8533;BMP280;4304;53.876;10.662;2023-06-14T00:10:14;101896.47;;;14.82
8533;BMP280;4304;53.876;10.662;2023-06-14T00:12:40;101897.63;;;14.78
8533;BMP280;4304;53.876;10.662;2023-06-14T00:15:06;101900.97;;;14.68
8533;BMP280;4304;53.876;10.662;2023-06-14T00:17:32;101895.38;;;14.60
8533;BMP280;4304;53.876;10.662;2023-06-14T00:19:59;101906.59;;;14.62
8533;BMP280;4304;53.876;10.662;2023-06-14T00:22:25;101904.78;;;14.62
8533;BMP280;4304;53.876;10.662;2023-06-14T00:24:51;101909.38;;;14.59
8533;BMP280;4304;53.876;10.662;2023-06-14T00:27:16;101920.53;;;14.75
8533;BMP280;4304;53.876;10.662;2023-06-14T00:29:42;101923.34;;;14.72
8533;BMP280;4304;53.876;10.662;2023-06-14T00:32:07;101916.94;;;14.63
8533;BMP280;4304;53.876;10.662;2023-06-14T00:34:33;101920.50;;;14.62
8533;BMP280;4304;53.876;10.662;2023-06-14T00:36:59;101926.13;;;14.56
8533;BMP280;4304;53.876;10.662;2023-06-14T00:39:24;101919.03;;;14.58
8533;BMP280;4304;53.876;10.662;2023-06-14T00:41:50;101920.72;;;14.59
8533;BMP280;4304;53.876;10.662;2023-06-14T00:44:16;101919.56;;;14.63
8533;BMP280;4304;53.876;10.662;2023-06-14T00:46:41;101920.72;;;14.59
8533;BMP280;4304;53.876;10.662;2023-06-14T00:49:07;101933.13;;;14.56
8533;BMP280;4304;53.876;10.662;2023-06-14T00:51:32;101941.84;;;14.56
8533;BMP280;4304;53.876;10.662;2023-06-14T00:53:57;101933.34;;;14.53
8533;BMP280;4304;53.876;10.662;2023-06-14T00:56:23;101916.25;;;14.48
8533;BMP280;4304;53.876;10.662;2023-06-14T00:58:49;101933.66;;;14.49
8533;BMP280;4304;53.876;10.662;2023-06-14T01:01:16;101942.50;;;14.46
8533;BMP280;4304;53.876;10.662;2023-06-14T01:03:41;101941.59;;;14.47
8533;BMP280;4304;53.876;10.662;2023-06-14T01:06:20;101938.22;;;14.45
8533;BMP280;4304;53.876;10.662;2023-06-14T01:11:41;101947.09;;;14.43
8533;BMP280;4304;53.876;10.662;2023-06-14T01:14:11;101941.88;;;14.43
8533;BMP280;4304;53.876;10.662;2023-06-14T01:16:38;101942.50;;;14.46
8533;BMP280;4304;53.876;10.662;2023-06-14T01:19:05;101932.28;;;14.43
8533;BMP280;4304;53.876;10.662;2023-06-14T01:21:31;101939.06;;;14.46
8533;BMP280;4304;53.876;10.662;2023-06-14T01:24:06;101946.72;;;14.49
8533;BMP280;4304;53.876;10.662;2023-06-14T01:26:32;101940.75;;;14.47
8533;BMP280;4304;53.876;10.662;2023-06-14T01:28:58;101939.88;;;14.46
8533;BMP280;4304;53.876;10.662;2023-06-14T01:31:24;101935.81;;;14.42
8533;BMP280;4304;53.876;10.662;2023-06-14T01:33:51;101935.16;;;14.39
8533;BMP280;4304;53.876;10.662;2023-06-14T01:36:18;101950.03;;;14.38
8533;BMP280;4304;53.876;10.662;2023-06-14T01:38:45;101936.19;;;14.36
8533;BMP280;4304;53.876;10.662;2023-06-14T01:41:11;101939.03;;;14.33
8533;BMP280;4304;53.876;10.662;2023-06-14T01:43:38;101933.91;;;14.32
8533;BMP280;4304;53.876;10.662;2023-06-14T01:46:05;101930.69;;;14.41
8533;BMP280;4304;53.876;10.662;2023-06-14T01:48:31;101939.34;;;14.41
8533;BMP280;4304;53.876;10.662;2023-06-14T01:50:57;101942.38;;;14.35
8533;BMP280;4304;53.876;10.662;2023-06-14T01:53:22;101933.25;;;14.28
8533;BMP280;4304;53.876;10.662;2023-06-14T01:55:47;101937.16;;;14.21
8533;BMP280;4304;53.876;10.662;2023-06-14T01:58:14;101941.47;;;14.22
8533;BMP280;4304;53.876;10.662;2023-06-14T02:00:41;101950.34;;;14.20
8533;BMP280;4304;53.876;10.662;2023-06-14T02:03:08;101959.69;;;14.10
8533;BMP280;4304;53.876;10.662;2023-06-14T02:05:33;101951.75;;;14.11
8533;BMP280;4304;53.876;10.662;2023-06-14T02:08:00;101941.22;;;14.13
8533;BMP280;4304;53.876;10.662;2023-06-14T02:10:25;101949.69;;;14.16
8533;BMP280;4304;53.876;10.662;2023-06-14T02:12:50;101953.72;;;14.22
8533;BMP280;4304;53.876;10.662;2023-06-14T02:15:16;101963.25;;;14.09
8533;BMP280;4304;53.876;10.662;2023-06-14T02:17:45;101960.56;;;14.10
8533;BMP280;4304;53.876;10.662;2023-06-14T02:20:12;101959.69;;;14.10
8533;BMP280;4304;53.876;10.662;2023-06-14T02:22:37;101954.19;;;14.14
8533;BMP280;4304;53.876;10.662;2023-06-14T02:25:03;101954.19;;;14.14
8533;BMP280;4304;53.876;10.662;2023-06-14T02:27:29;101950.94;;;14.11
8533;BMP280;4304;53.876;10.662;2023-06-14T02:29:54;101944.97;;;14.09
8533;BMP280;4304;53.876;10.662;2023-06-14T02:32:19;101945.69;;;14.11
8533;BMP280;4304;53.876;10.662;2023-06-14T02:34:45;101948.78;;;14.04
8533;BMP280;4304;53.876;10.662;2023-06-14T02:37:15;101950.94;;;13.97
8533;BMP280;4304;53.876;10.662;2023-06-14T02:39:40;101951.84;;;13.96
8533;BMP280;4304;53.876;10.662;2023-06-14T02:42:06;101946.53;;;13.98
8533;BMP280;4304;53.876;10.662;2023-06-14T02:44:31;101952.03;;;13.93
8533;BMP280;4304;53.876;10.662;2023-06-14T02:46:57;101950.38;;;13.92
8533;BMP280;4304;53.876;10.662;2023-06-14T02:49:24;101961.47;;;13.96
8533;BMP280;4304;53.876;10.662;2023-06-14T02:51:49;101951.28;;;14.05
8533;BMP280;4304;53.876;10.662;2023-06-14T02:54:15;101952.69;;;13.97
8533;BMP280;4304;53.876;10.662;2023-06-14T02:56:40;101956.97;;;13.98
8533;BMP280;4304;53.876;10.662;2023-06-14T02:59:06;101972.84;;;13.95
8533;BMP280;4304;53.876;10.662;2023-06-14T03:01:32;101966.59;;;13.97
8533;BMP280;4304;53.876;10.662;2023-06-14T03:04:09;101965.75;;;13.97
8533;BMP280;4304;53.876;10.662;2023-06-14T03:06:35;101967.53;;;13.96
8533;BMP280;4304;53.876;10.662;2023-06-14T03:09:01;101965.94;;;13.94
8533;BMP280;4304;53.876;10.662;2023-06-14T03:11:29;101975.28;;;13.98
8533;BMP280;4304;53.876;10.662;2023-06-14T03:13:55;101970.78;;;14.00
8533;BMP280;4304;53.876;10.662;2023-06-14T03:16:21;101974.44;;;13.97
8533;BMP280;4304;53.876;10.662;2023-06-14T03:18:50;101977.63;;;14.02
8533;BMP280;4304;53.876;10.662;2023-06-14T03:21:15;101978.53;;;14.01
8533;BMP280;4304;53.876;10.662;2023-06-14T03:23:44;101971.47;;;14.03
8533;BMP280;4304;53.876;10.662;2023-06-14T03:26:10;101969.78;;;14.02
8533;BMP280;4304;53.876;10.662;2023-06-14T03:28:42;101972.75;;;14.10
8533;BMP280;4304;53.876;10.662;2023-06-14T03:31:08;101982.38;;;14.09
8533;BMP280;4304;53.876;10.662;2023-06-14T03:33:34;101983.44;;;14.07
8533;BMP280;4304;53.876;10.662;2023-06-14T03:35:59;101983.13;;;14.11
8533;BMP280;4304;53.876;10.662;2023-06-14T03:38:25;101978.00;;;14.10
8533;BMP280;4304;53.876;10.662;2023-06-14T03:40:50;101990.59;;;14.17
8533;BMP280;4304;53.876;10.662;2023-06-14T03:43:16;101990.09;;;14.25
8533;BMP280;4304;53.876;10.662;2023-06-14T03:45:41;101993.88;;;14.21
8533;BMP280;4304;53.876;10.662;2023-06-14T03:48:08;102001.34;;;14.27
8533;BMP280;4304;53.876;10.662;2023-06-14T03:50:34;102003.34;;;14.36
8533;BMP280;4304;53.876;10.662;2023-06-14T03:52:59;101996.78;;;14.43
8533;BMP280;4304;53.876;10.662;2023-06-14T03:55:26;102008.81;;;14.59
8533;BMP280;4304;53.876;10.662;2023-06-14T03:57:53;102011.97;;;14.64
8533;BMP280;4304;53.876;10.662;2023-06-14T04:00:18;102020.28;;;14.70
8533;BMP280;4304;53.876;10.662;2023-06-14T04:02:44;102014.47;;;14.79
8533;BMP280;4304;53.876;10.662;2023-06-14T04:05:10;102004.25;;;15.01
8533;BMP280;4304;53.876;10.662;2023-06-14T04:07:35;102010.88;;;15.06
8533;BMP280;4304;53.876;10.662;2023-06-14T04:10:06;102005.28;;;15.25
8533;BMP280;4304;53.876;10.662;2023-06-14T04:12:33;102008.44;;;15.30
8533;BMP280;4304;53.876;10.662;2023-06-14T04:14:58;102013.41;;;15.59
8533;BMP280;4304;53.876;10.662;2023-06-14T04:17:23;102020.84;;;16.02
8533;BMP280;4304;53.876;10.662;2023-06-14T04:19:49;102021.78;;;16.25
8533;BMP280;4304;53.876;10.662;2023-06-14T04:22:14;102025.88;;;16.17
8533;BMP280;4304;53.876;10.662;2023-06-14T04:24:39;102022.53;;;16.03
8533;BMP280;4304;53.876;10.662;2023-06-14T04:27:07;102028.38;;;16.19
8533;BMP280;4304;53.876;10.662;2023-06-14T04:29:33;102027.25;;;16.23
8533;BMP280;4304;53.876;10.662;2023-06-14T04:31:58;102018.72;;;16.67
8533;BMP280;4304;53.876;10.662;2023-06-14T04:34:25;102017.50;;;16.83
8533;BMP280;4304;53.876;10.662;2023-06-14T04:36:55;102033.31;;;16.94
8533;BMP280;4304;53.876;10.662;2023-06-14T04:39:22;102026.56;;;16.44
8533;BMP280;4304;53.876;10.662;2023-06-14T04:41:47;102034.75;;;16.98
8533;BMP280;4304;53.876;10.662;2023-06-14T04:44:13;102041.88;;;17.09
8533;BMP280;4304;53.876;10.662;2023-06-14T04:46:39;102039.09;;;17.22
8533;BMP280;4304;53.876;10.662;2023-06-14T04:49:14;102038.91;;;17.36
8533;BMP280;4304;53.876;10.662;2023-06-14T04:51:43;102037.25;;;17.46
8533;BMP280;4304;53.876;10.662;2023-06-14T04:54:09;102043.06;;;17.39
8533;BMP280;4304;53.876;10.662;2023-06-14T04:56:39;102035.41;;;17.36
8533;BMP280;4304;53.876;10.662;2023-06-14T04:59:04;102042.31;;;17.60
8533;BMP280;4304;53.876;10.662;2023-06-14T05:01:30;102042.41;;;18.14
8533;BMP280;4304;53.876;10.662;2023-06-14T05:03:57;102032.56;;;18.05
8533;BMP280;4304;53.876;10.662;2023-06-14T05:06:23;102043.91;;;18.06
8533;BMP280;4304;53.876;10.662;2023-06-14T05:08:48;102036.25;;;17.81
8533;BMP280;4304;53.876;10.662;2023-06-14T05:11:14;102039.72;;;17.93
8533;BMP280;4304;53.876;10.662;2023-06-14T05:13:39;102053.88;;;18.35
8533;BMP280;4304;53.876;10.662;2023-06-14T05:16:06;102055.66;;;18.67
8533;BMP280;4304;53.876;10.662;2023-06-14T05:18:31;102042.25;;;18.38
8533;BMP280;4304;53.876;10.662;2023-06-14T05:20:59;102039.06;;;18.87
8533;BMP280;4304;53.876;10.662;2023-06-14T05:23:25;102048.28;;;18.92
8533;BMP280;4304;53.876;10.662;2023-06-14T05:25:50;102051.16;;;19.52
8533;BMP280;4304;53.876;10.662;2023-06-14T05:28:15;102069.16;;;20.08
8533;BMP280;4304;53.876;10.662;2023-06-14T05:30:42;102068.63;;;19.84
8533;BMP280;4304;53.876;10.662;2023-06-14T05:33:07;102072.91;;;20.35
8533;BMP280;4304;53.876;10.662;2023-06-14T05:35:33;102067.97;;;19.91
8533;BMP280;4304;53.876;10.662;2023-06-14T05:37:58;102044.91;;;19.32
8533;BMP280;4304;53.876;10.662;2023-06-14T05:40:23;102066.06;;;20.03
8533;BMP280;4304;53.876;10.662;2023-06-14T05:42:49;102073.34;;;20.40
8533;BMP280;4304;53.876;10.662;2023-06-14T05:45:14;102068.84;;;20.31
8533;BMP280;4304;53.876;10.662;2023-06-14T05:47:41;102062.13;;;20.56
8533;BMP280;4304;53.876;10.662;2023-06-14T05:50:07;102069.78;;;19.80
8533;BMP280;4304;53.876;10.662;2023-06-14T05:52:34;102098.19;;;20.67
8533;BMP280;4304;53.876;10.662;2023-06-14T05:55:00;102072.63;;;20.77
8533;BMP280;4304;53.876;10.662;2023-06-14T05:57:26;102078.09;;;20.75
8533;BMP280;4304;53.876;10.662;2023-06-14T05:59:52;102093.28;;;21.11
8533;BMP280;4304;53.876;10.662;2023-06-14T06:02:17;102116.06;;;20.93
8533;BMP280;4304;53.876;10.662;2023-06-14T06:04:42;102087.53;;;20.78
8533;BMP280;4304;53.876;10.662;2023-06-14T06:07:08;102103.31;;;21.92
8533;BMP280;4304;53.876;10.662;2023-06-14T06:09:33;102116.91;;;22.16
8533;BMP280;4304;53.876;10.662;2023-06-14T06:11:58;102117.47;;;22.29
8533;BMP280;4304;53.876;10.662;2023-06-14T06:14:24;102138.66;;;22.29
8533;BMP280;4304;53.876;10.662;2023-06-14T06:16:49;102142.53;;;22.34
8533;BMP280;4304;53.876;10.662;2023-06-14T06:19:15;102123.34;;;22.13
8533;BMP280;4304;53.876;10.662;2023-06-14T06:21:40;102093.50;;;22.21
8533;BMP280;4304;53.876;10.662;2023-06-14T06:24:06;102113.38;;;22.34
8533;BMP280;4304;53.876;10.662;2023-06-14T06:26:31;102111.00;;;21.76
8533;BMP280;4304;53.876;10.662;2023-06-14T06:28:58;102140.50;;;22.81
8533;BMP280;4304;53.876;10.662;2023-06-14T06:31:23;102129.22;;;21.98
8533;BMP280;4304;53.876;10.662;2023-06-14T06:33:49;102093.75;;;21.35
8533;BMP280;4304;53.876;10.662;2023-06-14T06:36:14;102115.47;;;22.40
8533;BMP280;4304;53.876;10.662;2023-06-14T06:38:40;102143.41;;;22.97
8533;BMP280;4304;53.876;10.662;2023-06-14T06:41:05;102137.56;;;22.58
8533;BMP280;4304;53.876;10.662;2023-06-14T06:43:31;102175.84;;;23.70
8533;BMP280;4304;53.876;10.662;2023-06-14T06:45:56;102102.09;;;21.68
8533;BMP280;4304;53.876;10.662;2023-06-14T06:48:21;102137.00;;;22.64
8533;BMP280;4304;53.876;10.662;2023-06-14T06:50:47;102116.38;;;22.12
8533;BMP280;4304;53.876;10.662;2023-06-14T06:53:12;102160.56;;;23.20
8533;BMP280;4304;53.876;10.662;2023-06-14T06:55:38;102160.22;;;23.06
8533;BMP280;4304;53.876;10.662;2023-06-14T06:58:03;102184.13;;;23.84
8533;BMP280;4304;53.876;10.662;2023-06-14T07:00:30;102180.16;;;23.54
8533;BMP280;4304;53.876;10.662;2023-06-14T07:02:55;102181.00;;;23.89
8533;BMP280;4304;53.876;10.662;2023-06-14T07:05:22;102181.09;;;24.39
8533;BMP280;4304;53.876;10.662;2023-06-14T07:07:47;102207.69;;;24.39
8533;BMP280;4304;53.876;10.662;2023-06-14T07:10:13;102163.94;;;23.39
8533;BMP280;4304;53.876;10.662;2023-06-14T07:12:38;102132.28;;;22.58
8533;BMP280;4304;53.876;10.662;2023-06-14T07:15:06;102145.50;;;22.67
8533;BMP280;4304;53.876;10.662;2023-06-14T07:17:32;102173.47;;;23.32
8533;BMP280;4304;53.876;10.662;2023-06-14T07:19:59;102162.41;;;22.93
8533;BMP280;4304;53.876;10.662;2023-06-14T07:22:24;102188.06;;;23.46
8533;BMP280;4304;53.876;10.662;2023-06-14T07:24:49;102179.59;;;23.77
8533;BMP280;4304;53.876;10.662;2023-06-14T07:27:15;102223.69;;;24.12
8533;BMP280;4304;53.876;10.662;2023-06-14T07:29:40;102141.41;;;22.36
8533;BMP280;4304;53.876;10.662;2023-06-14T07:32:06;102184.16;;;22.96
8533;BMP280;4304;53.876;10.662;2023-06-14T07:34:31;102184.53;;;23.72
8533;BMP280;4304;53.876;10.662;2023-06-14T07:36:57;102173.69;;;23.21
8533;BMP280;4304;53.876;10.662;2023-06-14T07:39:22;102141.03;;;22.94
8533;BMP280;4304;53.876;10.662;2023-06-14T07:41:48;102112.34;;;22.08
8533;BMP280;4304;53.876;10.662;2023-06-14T07:44:14;102108.88;;;21.98
8533;BMP280;4304;53.876;10.662;2023-06-14T07:46:39;102133.44;;;22.46
8533;BMP280;4304;53.876;10.662;2023-06-14T07:49:05;102194.28;;;22.19
8533;BMP280;4304;53.876;10.662;2023-06-14T07:51:31;102226.19;;;22.91
8533;BMP280;4304;53.876;10.662;2023-06-14T07:53:56;102129.19;;;22.89
8533;BMP280;4304;53.876;10.662;2023-06-14T07:56:22;102088.16;;;22.39
8533;BMP280;4304;53.876;10.662;2023-06-14T07:58:48;102118.47;;;22.81
8533;BMP280;4304;53.876;10.662;2023-06-14T08:01:13;102120.34;;;22.98
8533;BMP280;4304;53.876;10.662;2023-06-14T08:03:39;102102.88;;;22.78
8533;BMP280;4304;53.876;10.662;2023-06-14T08:06:04;102154.31;;;23.73
8533;BMP280;4304;53.876;10.662;2023-06-14T08:08:30;102153.78;;;23.69
8533;BMP280;4304;53.876;10.662;2023-06-14T08:10:56;102148.16;;;23.55
8533;BMP280;4304;53.876;10.662;2023-06-14T08:13:21;102116.09;;;22.61
8533;BMP280;4304;53.876;10.662;2023-06-14T08:15:46;102174.53;;;22.95
8533;BMP280;4304;53.876;10.662;2023-06-14T08:18:13;102138.59;;;22.47
8533;BMP280;4304;53.876;10.662;2023-06-14T08:20:38;102157.94;;;22.93
8533;BMP280;4304;53.876;10.662;2023-06-14T08:23:05;102130.84;;;22.18
8533;BMP280;4304;53.876;10.662;2023-06-14T08:25:30;102164.69;;;22.42
8533;BMP280;4304;53.876;10.662;2023-06-14T08:27:56;102132.53;;;22.28
8533;BMP280;4304;53.876;10.662;2023-06-14T08:30:22;102120.84;;;22.21
8533;BMP280;4304;53.876;10.662;2023-06-14T08:32:47;102130.72;;;22.55
8533;BMP280;4304;53.876;10.662;2023-06-14T08:35:12;102172.38;;;23.08
8533;BMP280;4304;53.876;10.662;2023-06-14T08:37:39;102151.75;;;23.02
8533;BMP280;4304;53.876;10.662;2023-06-14T08:40:17;102164.19;;;23.19
8533;BMP280;4304;53.876;10.662;2023-06-14T08:42:47;102162.97;;;23.14
8533;BMP280;4304;53.876;10.662;2023-06-14T08:45:13;102167.38;;;23.22
8533;BMP280;4304;53.876;10.662;2023-06-14T08:47:40;102139.16;;;22.77
8533;BMP280;4304;53.876;10.662;2023-06-14T08:50:06;102153.88;;;22.99
8533;BMP280;4304;53.876;10.662;2023-06-14T08:52:37;102178.63;;;22.80
8533;BMP280;4304;53.876;10.662;2023-06-14T08:55:11;102157.63;;;22.24
8533;BMP280;4304;53.876;10.662;2023-06-14T08:57:37;102186.69;;;22.88
8533;BMP280;4304;53.876;10.662;2023-06-14T09:00:06;102202.81;;;23.31
8533;BMP280;4304;53.876;10.662;2023-06-14T09:02:41;102171.47;;;22.64
8533;BMP280;4304;53.876;10.662;2023-06-14T09:05:30;102155.16;;;23.12
8533;BMP280;4304;53.876;10.662;2023-06-14T09:07:59;102158.59;;;23.22
8533;BMP280;4304;53.876;10.662;2023-06-14T09:10:27;102169.50;;;23.19
8533;BMP280;4304;53.876;10.662;2023-06-14T09:12:54;102152.09;;;23.17
8533;BMP280;4304;53.876;10.662;2023-06-14T09:15:21;102131.44;;;22.57
8533;BMP280;4304;53.876;10.662;2023-06-14T09:17:47;102122.81;;;22.82
8533;BMP280;4304;53.876;10.662;2023-06-14T09:20:13;102117.84;;;22.70
8533;BMP280;4304;53.876;10.662;2023-06-14T09:22:44;102117.22;;;22.85
8533;BMP280;4304;53.876;10.662;2023-06-14T09:25:10;102156.00;;;23.13
8533;BMP280;4304;53.876;10.662;2023-06-14T09:27:37;102162.66;;;22.63
8533;BMP280;4304;53.876;10.662;2023-06-14T09:30:05;102145.66;;;22.92
8533;BMP280;4304;53.876;10.662;2023-06-14T09:32:39;102164.44;;;23.08
8533;BMP280;4304;53.876;10.662;2023-06-14T09:35:08;102163.19;;;23.03
8533;BMP280;4304;53.876;10.662;2023-06-14T09:37:35;102180.22;;;22.73
8533;BMP280;4304;53.876;10.662;2023-06-14T09:40:01;102237.59;;;22.56
8533;BMP280;4304;53.876;10.662;2023-06-14T09:42:27;102210.97;;;22.57
8533;BMP280;4304;53.876;10.662;2023-06-14T09:44:55;102196.06;;;22.83
8533;BMP280;4304;53.876;10.662;2023-06-14T09:47:22;102187.34;;;22.18
8533;BMP280;4304;53.876;10.662;2023-06-14T09:49:49;102174.91;;;22.37
8533;BMP280;4304;53.876;10.662;2023-06-14T09:52:17;102148.19;;;22.84
8533;BMP280;4304;53.876;10.662;2023-06-14T09:54:45;102156.47;;;23.08
8533;BMP280;4304;53.876;10.662;2023-06-14T09:57:24;102178.75;;;22.88
8533;BMP280;4304;53.876;10.662;2023-06-14T09:59:57;102211.50;;;23.23
8533;BMP280;4304;53.876;10.662;2023-06-14T10:02:29;102163.84;;;22.78
8533;BMP280;4304;53.876;10.662;2023-06-14T10:05:07;102143.38;;;22.34
8533;BMP280;4304;53.876;10.662;2023-06-14T10:08:00;102170.06;;;22.60
8533;BMP280;4304;53.876;10.662;2023-06-14T10:10:27;102139.16;;;22.77
8533;BMP280;4304;53.876;10.662;2023-06-14T10:12:54;102141.47;;;22.90
8533;BMP280;4304;53.876;10.662;2023-06-14T10:15:38;102164.28;;;23.10
8533;BMP280;4304;53.876;10.662;2023-06-14T10:18:17;102146.69;;;22.46
8533;BMP280;4304;53.876;10.662;2023-06-14T10:20:55;102176.59;;;23.01
8533;BMP280;4304;53.876;10.662;2023-06-14T10:23:24;102142.81;;;23.03
8533;BMP280;4304;53.876;10.662;2023-06-14T10:25:56;102135.06;;;22.92
8533;BMP280;4304;53.876;10.662;2023-06-14T10:28:23;102159.19;;;22.89
8533;BMP280;4304;53.876;10.662;2023-06-14T10:31:11;102166.41;;;23.06
8533;BMP280;4304;53.876;10.662;2023-06-14T10:38:43;102172.72;;;22.96
8533;BMP280;4304;53.876;10.662;2023-06-14T10:41:09;102188.78;;;23.21
8533;BMP280;4304;53.876;10.662;2023-06-14T10:43:35;102154.06;;;23.32
8533;BMP280;4304;53.876;10.662;2023-06-14T10:46:17;102171.06;;;23.56
8533;BMP280;4304;53.876;10.662;2023-06-14T10:48:44;102169.34;;;23.47
8533;BMP280;4304;53.876;10.662;2023-06-14T10:51:19;102183.28;;;23.66
8533;BMP280;4304;53.876;10.662;2023-06-14T10:53:49;102173.34;;;23.51
8533;BMP280;4304;53.876;10.662;2023-06-14T10:56:28;102172.63;;;23.15
8533;BMP280;4304;53.876;10.662;2023-06-14T10:58:56;102152.66;;;22.93
8533;BMP280;4304;53.876;10.662;2023-06-14T11:01:38;102166.59;;;23.39
8533;BMP280;4304;53.876;10.662;2023-06-14T11:04:10;102194.63;;;23.24
8533;BMP280;4304;53.876;10.662;2023-06-14T11:06:47;102213.81;;;23.53
8533;BMP280;4304;53.876;10.662;2023-06-14T11:09:45;102204.84;;;23.37
8533;BMP280;4304;53.876;10.662;2023-06-14T11:12:17;102234.41;;;23.24
8533;BMP280;4304;53.876;10.662;2023-06-14T11:14:46;102214.59;;;22.83
8533;BMP280;4304;53.876;10.662;2023-06-14T11:17:13;102199.81;;;22.90
8533;BMP280;4304;53.876;10.662;2023-06-14T11:19:38;102198.41;;;22.95
8533;BMP280;4304;53.876;10.662;2023-06-14T11:22:04;102183.91;;;23.34
8533;BMP280;4304;53.876;10.662;2023-06-14T11:24:32;102197.03;;;23.18
8533;BMP280;4304;53.876;10.662;2023-06-14T11:26:58;102165.25;;;23.09
8533;BMP280;4304;53.876;10.662;2023-06-14T11:29:24;102243.16;;;23.52
8533;BMP280;4304;53.876;10.662;2023-06-14T11:31:51;102230.56;;;23.80
8533;BMP280;4304;53.876;10.662;2023-06-14T11:34:17;102246.34;;;24.16
8533;BMP280;4304;53.876;10.662;2023-06-14T11:36:43;102251.50;;;23.39
8533;BMP280;4304;53.876;10.662;2023-06-14T11:39:09;102259.00;;;23.44
8533;BMP280;4304;53.876;10.662;2023-06-14T11:41:40;102220.50;;;23.40
8533;BMP280;4304;53.876;10.662;2023-06-14T11:44:06;102212.44;;;23.76
8533;BMP280;4304;53.876;10.662;2023-06-14T11:46:32;102268.13;;;23.85
8533;BMP280;4304;53.876;10.662;2023-06-14T11:48:58;102245.22;;;23.67
8533;BMP280;4304;53.876;10.662;2023-06-14T11:51:29;102247.56;;;23.43
8533;BMP280;4304;53.876;10.662;2023-06-14T11:53:55;102298.91;;;23.52
8533;BMP280;4304;53.876;10.662;2023-06-14T11:56:21;102254.69;;;23.69
8533;BMP280;4304;53.876;10.662;2023-06-14T11:58:47;102249.41;;;23.60
8533;BMP280;4304;53.876;10.662;2023-06-14T12:01:21;102230.56;;;23.54
8533;BMP280;4304;53.876;10.662;2023-06-14T12:03:50;102193.03;;;23.49
8533;BMP280;4304;53.876;10.662;2023-06-14T12:06:26;102244.56;;;23.29
8533;BMP280;4304;53.876;10.662;2023-06-14T12:08:58;102251.94;;;23.35
8533;BMP280;4304;53.876;10.662;2023-06-14T12:11:34;102281.88;;;23.54
8533;BMP280;4304;53.876;10.662;2023-06-14T12:14:00;102266.97;;;23.44
8533;BMP280;4304;53.876;10.662;2023-06-14T12:16:33;102286.03;;;23.57
8533;BMP280;4304;53.876;10.662;2023-06-14T12:19:28;102259.66;;;23.28
8533;BMP280;4304;53.876;10.662;2023-06-14T12:21:54;102222.91;;;23.77
8533;BMP280;4304;53.876;10.662;2023-06-14T12:24:20;102175.34;;;23.22
8533;BMP280;4304;53.876;10.662;2023-06-14T12:26:45;102189.09;;;23.62
8533;BMP280;4304;53.876;10.662;2023-06-14T12:29:12;102190.56;;;23.47
8533;BMP280;4304;53.876;10.662;2023-06-14T12:31:38;102211.69;;;23.39
8533;BMP280;4304;53.876;10.662;2023-06-14T12:34:04;102243.75;;;23.72
8533;BMP280;4304;53.876;10.662;2023-06-14T12:36:29;102276.69;;;23.62
8533;BMP280;4304;53.876;10.662;2023-06-14T12:38:56;102252.09;;;23.33
8533;BMP280;4304;53.876;10.662;2023-06-14T12:41:22;102273.22;;;23.25
8533;BMP280;4304;53.876;10.662;2023-06-14T12:43:48;102288.53;;;23.58
8533;BMP280;4304;53.876;10.662;2023-06-14T12:46:14;102258.09;;;23.09
8533;BMP280;4304;53.876;10.662;2023-06-14T12:48:40;102222.06;;;23.33
8533;BMP280;4304;53.876;10.662;2023-06-14T12:51:05;102254.56;;;23.44
8533;BMP280;4304;53.876;10.662;2023-06-14T12:53:31;102244.22;;;23.58
8533;BMP280;4304;53.876;10.662;2023-06-14T12:55:57;102242.59;;;23.75
8533;BMP280;4304;53.876;10.662;2023-06-14T12:58:22;102251.03;;;23.44
8533;BMP280;4304;53.876;10.662;2023-06-14T13:00:49;102273.44;;;23.15
8533;BMP280;4304;53.876;10.662;2023-06-14T13:03:14;102242.00;;;23.37
8533;BMP280;4304;53.876;10.662;2023-06-14T13:05:44;102266.25;;;23.24
8533;BMP280;4304;53.876;10.662;2023-06-14T13:08:10;102256.19;;;23.89
8533;BMP280;4304;53.876;10.662;2023-06-14T13:10:38;102257.44;;;23.95
8533;BMP280;4304;53.876;10.662;2023-06-14T13:13:04;102246.50;;;23.80
8533;BMP280;4304;53.876;10.662;2023-06-14T13:15:29;102245.41;;;23.29
8533;BMP280;4304;53.876;10.662;2023-06-14T13:17:55;102271.75;;;23.84
8533;BMP280;4304;53.876;10.662;2023-06-14T13:20:21;102283.66;;;23.98
8533;BMP280;4304;53.876;10.662;2023-06-14T13:22:46;102279.34;;;23.62
8533;BMP280;4304;53.876;10.662;2023-06-14T13:25:12;102271.22;;;23.63
8533;BMP280;4304;53.876;10.662;2023-06-14T13:27:37;102290.38;;;23.31
8533;BMP280;4304;53.876;10.662;2023-06-14T13:30:04;102248.03;;;23.03
8533;BMP280;4304;53.876;10.662;2023-06-14T13:32:31;102247.75;;;23.59
8533;BMP280;4304;53.876;10.662;2023-06-14T13:34:56;102243.97;;;24.13
8533;BMP280;4304;53.876;10.662;2023-06-14T13:37:23;102277.97;;;23.22
8533;BMP280;4304;53.876;10.662;2023-06-14T13:39:48;102247.38;;;23.27
8533;BMP280;4304;53.876;10.662;2023-06-14T13:42:14;102239.81;;;23.76
8533;BMP280;4304;53.876;10.662;2023-06-14T13:44:39;102255.13;;;23.38
8533;BMP280;4304;53.876;10.662;2023-06-14T13:47:06;102243.69;;;23.38
8533;BMP280;4304;53.876;10.662;2023-06-14T13:49:32;102246.91;;;23.15
8533;BMP280;4304;53.876;10.662;2023-06-14T13:52:00;102242.28;;;23.17
8533;BMP280;4304;53.876;10.662;2023-06-14T13:54:26;102247.44;;;23.18
8533;BMP280;4304;53.876;10.662;2023-06-14T13:56:53;102217.72;;;22.78
8533;BMP280;4304;53.876;10.662;2023-06-14T13:59:18;102203.75;;;22.76
8533;BMP280;4304;53.876;10.662;2023-06-14T14:01:44;102207.97;;;22.70
8533;BMP280;4304;53.876;10.662;2023-06-14T14:04:10;102196.03;;;22.47
8533;BMP280;4304;53.876;10.662;2023-06-14T14:06:36;102206.09;;;22.43
8533;BMP280;4304;53.876;10.662;2023-06-14T14:09:02;102174.16;;;22.45
8533;BMP280;4304;53.876;10.662;2023-06-14T14:11:27;102181.03;;;22.38
8533;BMP280;4304;53.876;10.662;2023-06-14T14:13:53;102168.38;;;22.23
8533;BMP280;4304;53.876;10.662;2023-06-14T14:16:20;102163.59;;;22.35